sensor_id;sensor_type;location;lat;lon;timestamp;temperature;humidity
18444;DHT22;9350;53.176;8.194;2023-05-14T00:00:21;14.00;99.90
18444;DHT22;9350;53.176;8.194;2023-05-14T00:02:48;14.00;99.90
18444;DHT22;9350;53.176;8.194;2023-05-14T00:05:14;14.00;99.90
18444;DHT22;9350;53.176;8.194;2023-05-14T00:07:41;13.90;99.90
18444;DHT22;9350;53.176;8.194;2023-05-14T00:10:09;13.80;99.90
18444;DHT22;9350;53.176;8.194;2023-05-14T00:12:36;13.80;99.90
18444;DHT22;9350;53.176;8.194;2023-05-14T00:15:04;13.80;99.90
18444;DHT22;9350;53.176;8.194;2023-05-14T00:17:30;13.80;99.90
18444;DHT22;9350;53.176;8.194;2023-05-14T00:19:57;13.70;99.90
18444;DHT22;9350;53.176;8.194;2023-05-14T00:22:24;13.70;99.90
18444;DHT22;9350;53.176;8.194;2023-05-14T00:24:51;13.70;99.90
18444;DHT22;9350;53.176;8.194;2023-05-14T00:27:19;13.70;99.90
18444;DHT22;9350;53.176;8.194;2023-05-14T00:29:46;13.70;99.90
18444;DHT22;9350;53.176;8.194;2023-05-14T00:32:12;13.60;99.90
18444;DHT22;9350;53.176;8.194;2023-05-14T00:34:39;13.60;99.90
18444;DHT22;9350;53.176;8.194;2023-05-14T00:37:06;13.60;99.90
18444;DHT22;9350;53.176;8.194;2023-05-14T00:39:33;13.50;99.90
18444;DHT22;9350;53.176;8.194;2023-05-14T00:41:59;13.50;99.90
18444;DHT22;9350;53.176;8.194;2023-05-14T00:44:27;13.50;99.90
18444;DHT22;9350;53.176;8.194;2023-05-14T00:46:54;13.50;99.90
18444;DHT22;9350;53.176;8.194;2023-05-14T00:49:21;13.40;99.90
18444;DHT22;9350;53.176;8.194;2023-05-14T00:51:48;13.50;99.90
18444;DHT22;9350;53.176;8.194;2023-05-14T00:54:15;13.40;99.90
18444;DHT22;9350;53.176;8.194;2023-05-14T00:56:43;13.40;99.90
18444;DHT22;9350;53.176;8.194;2023-05-14T00:59:10;13.30;99.90
18444;DHT22;9350;53.176;8.194;2023-05-14T01:01:38;13.30;99.90
18444;DHT22;9350;53.176;8.194;2023-05-14T01:04:05;13.30;99.90
18444;DHT22;9350;53.176;8.194;2023-05-14T01:06:39;13.10;99.90
18444;DHT22;9350;53.176;8.194;2023-05-14T01:09:16;13.30;99.90
18444;DHT22;9350;53.176;8.194;2023-05-14T01:11:53;13.20;99.90
18444;DHT22;9350;53.176;8.194;2023-05-14T01:14:26;13.20;99.90
18444;DHT22;9350;53.176;8.194;2023-05-14T01:16:57;13.20;99.90
18444;DHT22;9350;53.176;8.194;2023-05-14T01:19:32;13.10;99.90
18444;DHT22;9350;53.176;8.194;2023-05-14T01:22:00;13.20;99.90
18444;DHT22;9350;53.176;8.194;2023-05-14T01:24:27;13.20;99.90
18444;DHT22;9350;53.176;8.194;2023-05-14T01:27:00;13.10;99.90
18444;DHT22;9350;53.176;8.194;2023-05-14T01:29:30;13.20;99.90
18444;DHT22;9350;53.176;8.194;2023-05-14T01:31:59;13.00;99.90
18444;DHT22;9350;53.176;8.194;2023-05-14T01:34:27;13.10;99.90
18444;DHT22;9350;53.176;8.194;2023-05-14T01:36:56;13.10;99.90
18444;DHT22;9350;53.176;8.194;2023-05-14T01:39:25;13.10;99.90
18444;DHT22;9350;53.176;8.194;2023-05-14T01:41:52;13.00;99.90
18444;DHT22;9350;53.176;8.194;2023-05-14T01:44:20;13.10;99.90
18444;DHT22;9350;53.176;8.194;2023-05-14T01:46:47;12.90;99.90
18444;DHT22;9350;53.176;8.194;2023-05-14T01:49:14;12.90;99.90
18444;DHT22;9350;53.176;8.194;2023-05-14T01:51:42;12.90;99.90
18444;DHT22;9350;53.176;8.194;2023-05-14T01:54:09;12.90;99.90
18444;DHT22;9350;53.176;8.194;2023-05-14T01:56:37;12.80;99.90
18444;DHT22;9350;53.176;8.194;2023-05-14T01:59:03;12.70;99.90
18444;DHT22;9350;53.176;8.194;2023-05-14T02:01:30;12.80;99.90
18444;DHT22;9350;53.176;8.194;2023-05-14T02:03:58;12.70;99.90
18444;DHT22;9350;53.176;8.194;2023-05-14T02:06:25;12.70;99.90
18444;DHT22;9350;53.176;8.194;2023-05-14T02:08:52;12.70;99.90
18444;DHT22;9350;53.176;8.194;2023-05-14T02:11:18;12.70;99.90
18444;DHT22;9350;53.176;8.194;2023-05-14T02:13:47;12.70;99.90
18444;DHT22;9350;53.176;8.194;2023-05-14T02:16:14;12.80;99.90
18444;DHT22;9350;53.176;8.194;2023-05-14T02:18:41;12.70;99.90
18444;DHT22;9350;53.176;8.194;2023-05-14T02:21:07;12.70;99.90
18444;DHT22;9350;53.176;8.194;2023-05-14T02:23:34;12.70;99.90
18444;DHT22;9350;53.176;8.194;2023-05-14T02:26:01;12.60;99.90
18444;DHT22;9350;53.176;8.194;2023-05-14T02:28:28;12.60;99.90
18444;DHT22;9350;53.176;8.194;2023-05-14T02:30:58;12.60;99.90
18444;DHT22;9350;53.176;8.194;2023-05-14T02:33:26;12.50;99.90
18444;DHT22;9350;53.176;8.194;2023-05-14T02:35:52;12.60;99.90
18444;DHT22;9350;53.176;8.194;2023-05-14T02:38:19;12.50;99.90
18444;DHT22;9350;53.176;8.194;2023-05-14T02:40:46;12.50;99.90
18444;DHT22;9350;53.176;8.194;2023-05-14T02:43:13;12.60;99.90
18444;DHT22;9350;53.176;8.194;2023-05-14T02:45:39;12.50;99.90
18444;DHT22;9350;53.176;8.194;2023-05-14T02:48:07;12.50;99.90
18444;DHT22;9350;53.176;8.194;2023-05-14T02:50:34;12.50;99.90
18444;DHT22;9350;53.176;8.194;2023-05-14T02:53:01;12.50;99.90
18444;DHT22;9350;53.176;8.194;2023-05-14T02:55:27;12.60;99.90
18444;DHT22;9350;53.176;8.194;2023-05-14T02:57:54;12.60;99.90
18444;DHT22;9350;53.176;8.194;2023-05-14T03:00:21;12.60;99.90
18444;DHT22;9350;53.176;8.194;2023-05-14T03:02:48;12.50;99.90
18444;DHT22;9350;53.176;8.194;2023-05-14T03:05:16;12.40;99.90
18444;DHT22;9350;53.176;8.194;2023-05-14T03:07:43;12.50;99.90
18444;DHT22;9350;53.176;8.194;2023-05-14T03:10:09;12.50;99.90
18444;DHT22;9350;53.176;8.194;2023-05-14T03:12:36;12.50;99.90
18444;DHT22;9350;53.176;8.194;2023-05-14T03:15:03;12.50;99.90
18444;DHT22;9350;53.176;8.194;2023-05-14T03:17:30;12.40;99.90
18444;DHT22;9350;53.176;8.194;2023-05-14T03:19:57;12.50;99.90
18444;DHT22;9350;53.176;8.194;2023-05-14T03:22:26;12.40;99.90
18444;DHT22;9350;53.176;8.194;2023-05-14T03:24:52;12.50;99.90
18444;DHT22;9350;53.176;8.194;2023-05-14T03:27:19;12.50;99.90
18444;DHT22;9350;53.176;8.194;2023-05-14T03:29:46;12.60;99.90
18444;DHT22;9350;53.176;8.194;2023-05-14T03:32:13;12.60;99.90
18444;DHT22;9350;53.176;8.194;2023-05-14T03:34:40;12.50;99.90
18444;DHT22;9350;53.176;8.194;2023-05-14T03:37:06;12.50;99.90
18444;DHT22;9350;53.176;8.194;2023-05-14T03:39:35;12.60;99.90
18444;DHT22;9350;53.176;8.194;2023-05-14T03:42:02;12.50;99.90
18444;DHT22;9350;53.176;8.194;2023-05-14T03:44:29;12.50;99.90
18444;DHT22;9350;53.176;8.194;2023-05-14T03:46:55;12.50;99.90
18444;DHT22;9350;53.176;8.194;2023-05-14T03:49:22;12.50;99.90
18444;DHT22;9350;53.176;8.194;2023-05-14T03:51:49;12.50;99.90
18444;DHT22;9350;53.176;8.194;2023-05-14T03:54:15;12.60;99.90
18444;DHT22;9350;53.176;8.194;2023-05-14T03:56:43;12.50;99.90
18444;DHT22;9350;53.176;8.194;2023-05-14T03:59:10;12.50;99.90
18444;DHT22;9350;53.176;8.194;2023-05-14T04:01:37;12.50;99.90
18444;DHT22;9350;53.176;8.194;2023-05-14T04:04:04;12.50;99.90
18444;DHT22;9350;53.176;8.194;2023-05-14T04:06:32;12.60;99.90
18444;DHT22;9350;53.176;8.194;2023-05-14T04:08:58;12.60;99.90
18444;DHT22;9350;53.176;8.194;2023-05-14T04:11:25;12.60;99.90
18444;DHT22;9350;53.176;8.194;2023-05-14T04:13:53;12.60;99.90
18444;DHT22;9350;53.176;8.194;2023-05-14T04:16:20;12.60;99.90
18444;DHT22;9350;53.176;8.194;2023-05-14T04:18:46;12.70;99.90
18444;DHT22;9350;53.176;8.194;2023-05-14T04:21:13;12.70;99.90
18444;DHT22;9350;53.176;8.194;2023-05-14T04:23:40;12.80;99.90
18444;DHT22;9350;53.176;8.194;2023-05-14T04:26:06;12.80;99.90
18444;DHT22;9350;53.176;8.194;2023-05-14T04:28:33;12.80;99.90
18444;DHT22;9350;53.176;8.194;2023-05-14T04:31:01;12.80;99.90
18444;DHT22;9350;53.176;8.194;2023-05-14T04:33:28;12.90;99.90
18444;DHT22;9350;53.176;8.194;2023-05-14T04:35:55;12.90;99.90
18444;DHT22;9350;53.176;8.194;2023-05-14T04:38:22;13.00;99.90
18444;DHT22;9350;53.176;8.194;2023-05-14T04:40:49;12.90;99.90
18444;DHT22;9350;53.176;8.194;2023-05-14T04:43:15;13.00;99.90
18444;DHT22;9350;53.176;8.194;2023-05-14T04:45:42;13.10;99.90
18444;DHT22;9350;53.176;8.194;2023-05-14T04:48:10;13.10;99.90
18444;DHT22;9350;53.176;8.194;2023-05-14T04:50:37;13.00;99.90
18444;DHT22;9350;53.176;8.194;2023-05-14T04:53:04;13.10;99.90
18444;DHT22;9350;53.176;8.194;2023-05-14T04:55:30;13.20;99.90
18444;DHT22;9350;53.176;8.194;2023-05-14T04:57:57;13.30;99.90
18444;DHT22;9350;53.176;8.194;2023-05-14T05:00:24;13.30;99.90
18444;DHT22;9350;53.176;8.194;2023-05-14T05:02:51;13.40;99.90
18444;DHT22;9350;53.176;8.194;2023-05-14T05:05:19;13.40;99.90
18444;DHT22;9350;53.176;8.194;2023-05-14T05:07:46;13.40;99.90
18444;DHT22;9350;53.176;8.194;2023-05-14T05:10:13;13.40;99.90
18444;DHT22;9350;53.176;8.194;2023-05-14T05:12:40;13.40;99.90
18444;DHT22;9350;53.176;8.194;2023-05-14T05:15:08;13.50;99.90
18444;DHT22;9350;53.176;8.194;2023-05-14T05:17:34;13.50;99.90
18444;DHT22;9350;53.176;8.194;2023-05-14T05:20:02;13.50;99.90
18444;DHT22;9350;53.176;8.194;2023-05-14T05:22:31;13.60;99.90
18444;DHT22;9350;53.176;8.194;2023-05-14T05:24:58;13.70;99.90
18444;DHT22;9350;53.176;8.194;2023-05-14T05:27:24;13.70;99.90
18444;DHT22;9350;53.176;8.194;2023-05-14T05:29:51;13.70;99.90
18444;DHT22;9350;53.176;8.194;2023-05-14T05:32:18;13.80;99.90
18444;DHT22;9350;53.176;8.194;2023-05-14T05:34:44;13.80;99.90
18444;DHT22;9350;53.176;8.194;2023-05-14T05:37:11;13.90;99.90
18444;DHT22;9350;53.176;8.194;2023-05-14T05:39:40;13.80;99.90
18444;DHT22;9350;53.176;8.194;2023-05-14T05:42:07;13.90;99.90
18444;DHT22;9350;53.176;8.194;2023-05-14T05:44:38;13.90;99.90
18444;DHT22;9350;53.176;8.194;2023-05-14T05:47:05;13.90;99.90
18444;DHT22;9350;53.176;8.194;2023-05-14T05:49:32;13.90;99.90
18444;DHT22;9350;53.176;8.194;2023-05-14T05:51:58;14.00;99.90
18444;DHT22;9350;53.176;8.194;2023-05-14T05:54:25;13.90;99.90
18444;DHT22;9350;53.176;8.194;2023-05-14T05:56:54;13.90;99.90
18444;DHT22;9350;53.176;8.194;2023-05-14T05:59:20;14.00;99.90
18444;DHT22;9350;53.176;8.194;2023-05-14T06:01:47;14.00;99.90
18444;DHT22;9350;53.176;8.194;2023-05-14T06:04:14;14.00;99.90
18444;DHT22;9350;53.176;8.194;2023-05-14T06:06:40;14.10;99.90
18444;DHT22;9350;53.176;8.194;2023-05-14T06:09:07;14.10;99.90
18444;DHT22;9350;53.176;8.194;2023-05-14T06:11:34;14.20;99.90
18444;DHT22;9350;53.176;8.194;2023-05-14T06:14:02;14.20;99.90
18444;DHT22;9350;53.176;8.194;2023-05-14T06:16:29;14.20;99.90
18444;DHT22;9350;53.176;8.194;2023-05-14T06:18:56;14.30;99.90
18444;DHT22;9350;53.176;8.194;2023-05-14T06:21:23;14.30;99.90
18444;DHT22;9350;53.176;8.194;2023-05-14T06:23:49;14.40;99.90
18444;DHT22;9350;53.176;8.194;2023-05-14T06:26:16;14.40;99.90
18444;DHT22;9350;53.176;8.194;2023-05-14T06:28:43;14.40;99.90
18444;DHT22;9350;53.176;8.194;2023-05-14T06:31:11;14.50;99.90
18444;DHT22;9350;53.176;8.194;2023-05-14T06:33:38;14.50;99.90
18444;DHT22;9350;53.176;8.194;2023-05-14T06:36:06;14.60;99.90
18444;DHT22;9350;53.176;8.194;2023-05-14T06:38:33;14.60;99.90
18444;DHT22;9350;53.176;8.194;2023-05-14T06:40:59;14.70;99.90
18444;DHT22;9350;53.176;8.194;2023-05-14T06:43:26;14.70;99.90
18444;DHT22;9350;53.176;8.194;2023-05-14T06:45:53;14.80;99.90
18444;DHT22;9350;53.176;8.194;2023-05-14T06:48:21;14.80;99.90
18444;DHT22;9350;53.176;8.194;2023-05-14T06:50:48;14.90;99.90
18444;DHT22;9350;53.176;8.194;2023-05-14T06:53:15;14.90;99.90
18444;DHT22;9350;53.176;8.194;2023-05-14T06:55:42;15.00;99.90
18444;DHT22;9350;53.176;8.194;2023-05-14T06:58:09;15.10;99.90
18444;DHT22;9350;53.176;8.194;2023-05-14T07:00:36;15.10;99.90
18444;DHT22;9350;53.176;8.194;2023-05-14T07:03:02;15.10;99.90
18444;DHT22;9350;53.176;8.194;2023-05-14T07:05:31;15.10;99.90
18444;DHT22;9350;53.176;8.194;2023-05-14T07:07:57;15.20;99.90
18444;DHT22;9350;53.176;8.194;2023-05-14T07:10:24;15.20;99.90
18444;DHT22;9350;53.176;8.194;2023-05-14T07:12:51;15.30;99.90
18444;DHT22;9350;53.176;8.194;2023-05-14T07:15:18;15.30;99.90
18444;DHT22;9350;53.176;8.194;2023-05-14T07:17:44;15.20;99.90
18444;DHT22;9350;53.176;8.194;2023-05-14T07:20:11;15.30;99.90
18444;DHT22;9350;53.176;8.194;2023-05-14T07:22:40;15.40;99.90
18444;DHT22;9350;53.176;8.194;2023-05-14T07:25:07;15.50;99.90
18444;DHT22;9350;53.176;8.194;2023-05-14T07:27:34;15.50;99.90
18444;DHT22;9350;53.176;8.194;2023-05-14T07:30:00;15.60;99.90
18444;DHT22;9350;53.176;8.194;2023-05-14T07:32:27;15.70;99.90
18444;DHT22;9350;53.176;8.194;2023-05-14T07:34:54;15.70;99.90
18444;DHT22;9350;53.176;8.194;2023-05-14T07:37:21;15.70;99.90
18444;DHT22;9350;53.176;8.194;2023-05-14T07:39:51;15.80;99.90
18444;DHT22;9350;53.176;8.194;2023-05-14T07:42:18;15.80;99.90
18444;DHT22;9350;53.176;8.194;2023-05-14T07:44:45;15.90;99.90
18444;DHT22;9350;53.176;8.194;2023-05-14T07:47:11;16.00;99.90
18444;DHT22;9350;53.176;8.194;2023-05-14T07:49:38;16.00;99.90
18444;DHT22;9350;53.176;8.194;2023-05-14T07:52:05;16.00;99.90
18444;DHT22;9350;53.176;8.194;2023-05-14T07:54:31;16.10;99.90
18444;DHT22;9350;53.176;8.194;2023-05-14T07:56:59;16.10;99.90
18444;DHT22;9350;53.176;8.194;2023-05-14T07:59:26;16.20;99.90
18444;DHT22;9350;53.176;8.194;2023-05-14T08:01:53;16.20;99.90
18444;DHT22;9350;53.176;8.194;2023-05-14T08:04:20;16.20;99.90
18444;DHT22;9350;53.176;8.194;2023-05-14T08:06:47;16.20;99.90
18444;DHT22;9350;53.176;8.194;2023-05-14T08:09:14;16.30;99.90
18444;DHT22;9350;53.176;8.194;2023-05-14T08:11:41;16.30;99.90
18444;DHT22;9350;53.176;8.194;2023-05-14T08:14:09;16.40;99.90
18444;DHT22;9350;53.176;8.194;2023-05-14T08:16:36;16.40;99.90
18444;DHT22;9350;53.176;8.194;2023-05-14T08:19:03;16.40;99.90
18444;DHT22;9350;53.176;8.194;2023-05-14T08:21:30;16.50;99.90
18444;DHT22;9350;53.176;8.194;2023-05-14T08:23:57;16.50;99.90
18444;DHT22;9350;53.176;8.194;2023-05-14T08:26:23;16.50;99.90
18444;DHT22;9350;53.176;8.194;2023-05-14T08:28:51;16.60;99.90
18444;DHT22;9350;53.176;8.194;2023-05-14T08:31:19;16.70;99.90
18444;DHT22;9350;53.176;8.194;2023-05-14T08:33:46;16.80;99.90
18444;DHT22;9350;53.176;8.194;2023-05-14T08:36:13;16.80;99.90
18444;DHT22;9350;53.176;8.194;2023-05-14T08:38:39;16.90;99.90
18444;DHT22;9350;53.176;8.194;2023-05-14T08:41:09;17.00;99.90
18444;DHT22;9350;53.176;8.194;2023-05-14T08:43:41;17.00;99.90
18444;DHT22;9350;53.176;8.194;2023-05-14T08:46:11;17.10;99.90
18444;DHT22;9350;53.176;8.194;2023-05-14T08:48:41;17.20;99.90
18444;DHT22;9350;53.176;8.194;2023-05-14T08:51:08;17.30;99.90
18444;DHT22;9350;53.176;8.194;2023-05-14T08:53:35;17.40;99.90
18444;DHT22;9350;53.176;8.194;2023-05-14T08:56:03;17.50;99.90
18444;DHT22;9350;53.176;8.194;2023-05-14T08:58:30;17.60;99.90
18444;DHT22;9350;53.176;8.194;2023-05-14T09:00:57;17.80;99.90
18444;DHT22;9350;53.176;8.194;2023-05-14T09:03:24;17.80;99.90
18444;DHT22;9350;53.176;8.194;2023-05-14T09:05:52;17.90;99.90
18444;DHT22;9350;53.176;8.194;2023-05-14T09:08:19;18.00;99.90
18444;DHT22;9350;53.176;8.194;2023-05-14T09:10:46;18.00;99.90
18444;DHT22;9350;53.176;8.194;2023-05-14T09:13:13;18.00;99.90
18444;DHT22;9350;53.176;8.194;2023-05-14T09:15:40;18.10;99.90
18444;DHT22;9350;53.176;8.194;2023-05-14T09:18:07;18.10;99.90
18444;DHT22;9350;53.176;8.194;2023-05-14T09:20:33;18.20;99.90
18444;DHT22;9350;53.176;8.194;2023-05-14T09:23:02;18.30;99.90
18444;DHT22;9350;53.176;8.194;2023-05-14T09:25:30;18.30;99.90
18444;DHT22;9350;53.176;8.194;2023-05-14T09:27:57;18.40;99.90
18444;DHT22;9350;53.176;8.194;2023-05-14T09:30:24;18.40;99.90
18444;DHT22;9350;53.176;8.194;2023-05-14T09:32:52;18.40;99.90
18444;DHT22;9350;53.176;8.194;2023-05-14T09:35:22;18.40;99.90
18444;DHT22;9350;53.176;8.194;2023-05-14T09:37:50;18.40;99.90
18444;DHT22;9350;53.176;8.194;2023-05-14T09:40:19;18.50;99.90
18444;DHT22;9350;53.176;8.194;2023-05-14T09:42:46;18.40;99.90
18444;DHT22;9350;53.176;8.194;2023-05-14T09:45:14;18.50;99.90
18444;DHT22;9350;53.176;8.194;2023-05-14T09:47:41;18.60;99.90
18444;DHT22;9350;53.176;8.194;2023-05-14T09:50:09;18.60;99.90
18444;DHT22;9350;53.176;8.194;2023-05-14T09:52:36;18.70;99.90
18444;DHT22;9350;53.176;8.194;2023-05-14T09:55:04;18.70;99.90
18444;DHT22;9350;53.176;8.194;2023-05-14T09:57:32;18.70;99.90
18444;DHT22;9350;53.176;8.194;2023-05-14T09:59:59;18.90;99.90
18444;DHT22;9350;53.176;8.194;2023-05-14T10:02:30;18.90;99.90
18444;DHT22;9350;53.176;8.194;2023-05-14T10:05:03;18.90;99.90
18444;DHT22;9350;53.176;8.194;2023-05-14T10:07:34;18.90;99.90
18444;DHT22;9350;53.176;8.194;2023-05-14T10:10:06;19.00;99.90
18444;DHT22;9350;53.176;8.194;2023-05-14T10:12:37;19.00;99.90
18444;DHT22;9350;53.176;8.194;2023-05-14T10:15:11;18.90;99.90
18444;DHT22;9350;53.176;8.194;2023-05-14T10:17:40;18.90;99.90
18444;DHT22;9350;53.176;8.194;2023-05-14T10:20:12;19.00;99.90
18444;DHT22;9350;53.176;8.194;2023-05-14T10:22:40;19.10;99.90
18444;DHT22;9350;53.176;8.194;2023-05-14T10:25:07;19.10;99.90
18444;DHT22;9350;53.176;8.194;2023-05-14T10:27:36;19.20;99.90
18444;DHT22;9350;53.176;8.194;2023-05-14T10:30:08;19.20;99.90
18444;DHT22;9350;53.176;8.194;2023-05-14T10:32:36;19.20;99.90
18444;DHT22;9350;53.176;8.194;2023-05-14T10:35:14;19.20;99.90
18444;DHT22;9350;53.176;8.194;2023-05-14T10:37:43;19.20;99.90
18444;DHT22;9350;53.176;8.194;2023-05-14T10:40:11;19.20;99.90
18444;DHT22;9350;53.176;8.194;2023-05-14T10:42:40;19.30;99.90
18444;DHT22;9350;53.176;8.194;2023-05-14T10:45:09;19.30;99.90
18444;DHT22;9350;53.176;8.194;2023-05-14T10:47:38;19.50;99.90
18444;DHT22;9350;53.176;8.194;2023-05-14T10:50:07;19.50;99.90
18444;DHT22;9350;53.176;8.194;2023-05-14T10:52:34;19.40;99.90
18444;DHT22;9350;53.176;8.194;2023-05-14T10:55:03;19.40;99.90
18444;DHT22;9350;53.176;8.194;2023-05-14T10:57:33;19.40;99.90
18444;DHT22;9350;53.176;8.194;2023-05-14T11:00:03;19.40;99.90
18444;DHT22;9350;53.176;8.194;2023-05-14T11:02:35;19.50;99.90
18444;DHT22;9350;53.176;8.194;2023-05-14T11:05:04;19.50;99.90
18444;DHT22;9350;53.176;8.194;2023-05-14T11:07:33;19.50;99.90
18444;DHT22;9350;53.176;8.194;2023-05-14T11:10:02;19.60;99.90
18444;DHT22;9350;53.176;8.194;2023-05-14T11:12:29;19.50;99.90
18444;DHT22;9350;53.176;8.194;2023-05-14T11:14:57;19.50;99.90
18444;DHT22;9350;53.176;8.194;2023-05-14T11:17:27;19.50;99.90
18444;DHT22;9350;53.176;8.194;2023-05-14T11:19:55;19.60;99.90
18444;DHT22;9350;53.176;8.194;2023-05-14T11:22:22;19.80;99.90
18444;DHT22;9350;53.176;8.194;2023-05-14T11:24:49;19.80;99.90
18444;DHT22;9350;53.176;8.194;2023-05-14T11:27:16;19.90;99.90
18444;DHT22;9350;53.176;8.194;2023-05-14T11:29:44;20.00;99.90
18444;DHT22;9350;53.176;8.194;2023-05-14T11:32:12;20.00;99.90
18444;DHT22;9350;53.176;8.194;2023-05-14T11:34:41;19.90;99.90
18444;DHT22;9350;53.176;8.194;2023-05-14T11:37:09;19.90;99.90
18444;DHT22;9350;53.176;8.194;2023-05-14T11:39:37;19.90;99.90
18444;DHT22;9350;53.176;8.194;2023-05-14T11:42:08;19.90;99.90
18444;DHT22;9350;53.176;8.194;2023-05-14T11:44:37;19.90;99.90
18444;DHT22;9350;53.176;8.194;2023-05-14T11:47:04;19.90;99.90
18444;DHT22;9350;53.176;8.194;2023-05-14T11:49:31;19.90;99.90
18444;DHT22;9350;53.176;8.194;2023-05-14T11:52:03;20.00;99.90
18444;DHT22;9350;53.176;8.194;2023-05-14T11:54:31;20.10;99.90
18444;DHT22;9350;53.176;8.194;2023-05-14T11:56:59;20.10;99.90
18444;DHT22;9350;53.176;8.194;2023-05-14T11:59:27;20.10;99.90
18444;DHT22;9350;53.176;8.194;2023-05-14T12:01:56;20.20;99.90
18444;DHT22;9350;53.176;8.194;2023-05-14T12:04:23;20.40;99.90
18444;DHT22;9350;53.176;8.194;2023-05-14T12:06:50;20.40;99.90
18444;DHT22;9350;53.176;8.194;2023-05-14T12:09:19;20.40;99.90
18444;DHT22;9350;53.176;8.194;2023-05-14T12:11:47;20.30;99.90
18444;DHT22;9350;53.176;8.194;2023-05-14T12:14:16;20.40;99.90
18444;DHT22;9350;53.176;8.194;2023-05-14T12:16:43;20.50;99.90
18444;DHT22;9350;53.176;8.194;2023-05-14T12:19:11;20.50;99.90
18444;DHT22;9350;53.176;8.194;2023-05-14T12:21:39;20.50;99.90
18444;DHT22;9350;53.176;8.194;2023-05-14T12:24:09;20.40;99.90
18444;DHT22;9350;53.176;8.194;2023-05-14T12:26:38;20.30;99.90
18444;DHT22;9350;53.176;8.194;2023-05-14T12:29:05;20.20;99.90
18444;DHT22;9350;53.176;8.194;2023-05-14T12:31:33;20.10;99.90
18444;DHT22;9350;53.176;8.194;2023-05-14T12:34:01;20.10;99.90
18444;DHT22;9350;53.176;8.194;2023-05-14T12:36:28;20.00;99.90
18444;DHT22;9350;53.176;8.194;2023-05-14T12:38:58;20.00;99.90
18444;DHT22;9350;53.176;8.194;2023-05-14T12:41:24;20.00;99.90
18444;DHT22;9350;53.176;8.194;2023-05-14T12:43:53;20.00;99.90
18444;DHT22;9350;53.176;8.194;2023-05-14T12:46:20;20.10;99.90
18444;DHT22;9350;53.176;8.194;2023-05-14T12:48:47;20.10;99.90
18444;DHT22;9350;53.176;8.194;2023-05-14T12:51:14;20.10;99.90
18444;DHT22;9350;53.176;8.194;2023-05-14T12:53:40;20.10;99.90
18444;DHT22;9350;53.176;8.194;2023-05-14T12:56:07;20.30;99.90
18444;DHT22;9350;53.176;8.194;2023-05-14T12:58:34;20.40;99.90
18444;DHT22;9350;53.176;8.194;2023-05-14T13:01:03;20.40;99.90
18444;DHT22;9350;53.176;8.194;2023-05-14T13:03:30;20.50;99.90
18444;DHT22;9350;53.176;8.194;2023-05-14T13:05:57;20.60;99.90
18444;DHT22;9350;53.176;8.194;2023-05-14T13:08:24;20.70;99.90
18444;DHT22;9350;53.176;8.194;2023-05-14T13:10:51;20.70;99.90
18444;DHT22;9350;53.176;8.194;2023-05-14T13:13:18;20.70;99.90
18444;DHT22;9350;53.176;8.194;2023-05-14T13:15:45;20.80;99.90
18444;DHT22;9350;53.176;8.194;2023-05-14T13:18:13;20.80;99.90
18444;DHT22;9350;53.176;8.194;2023-05-14T13:20:40;20.80;99.90
18444;DHT22;9350;53.176;8.194;2023-05-14T13:23:07;20.90;99.90
18444;DHT22;9350;53.176;8.194;2023-05-14T13:25:34;20.80;99.90
18444;DHT22;9350;53.176;8.194;2023-05-14T13:28:01;20.90;99.90
18444;DHT22;9350;53.176;8.194;2023-05-14T13:30:28;21.00;99.90
18444;DHT22;9350;53.176;8.194;2023-05-14T13:32:54;21.00;99.90
18444;DHT22;9350;53.176;8.194;2023-05-14T13:35:23;21.20;99.90
18444;DHT22;9350;53.176;8.194;2023-05-14T13:37:50;21.40;99.90
18444;DHT22;9350;53.176;8.194;2023-05-14T13:40:16;21.30;99.90
18444;DHT22;9350;53.176;8.194;2023-05-14T13:42:43;21.30;99.90
18444;DHT22;9350;53.176;8.194;2023-05-14T13:45:10;21.30;99.90
18444;DHT22;9350;53.176;8.194;2023-05-14T13:47:37;21.30;99.90
18444;DHT22;9350;53.176;8.194;2023-05-14T13:50:05;21.30;99.90
18444;DHT22;9350;53.176;8.194;2023-05-14T13:52:33;21.40;99.90
18444;DHT22;9350;53.176;8.194;2023-05-14T13:55:00;21.50;99.90
18444;DHT22;9350;53.176;8.194;2023-05-14T13:57:27;21.60;99.90
18444;DHT22;9350;53.176;8.194;2023-05-14T13:59:53;21.60;99.90
18444;DHT22;9350;53.176;8.194;2023-05-14T14:02:20;21.70;99.90
18444;DHT22;9350;53.176;8.194;2023-05-14T14:04:47;21.70;99.90
18444;DHT22;9350;53.176;8.194;2023-05-14T14:07:14;21.70;99.90
18444;DHT22;9350;53.176;8.194;2023-05-14T14:09:42;21.70;99.90
18444;DHT22;9350;53.176;8.194;2023-05-14T14:12:09;21.80;99.90
18444;DHT22;9350;53.176;8.194;2023-05-14T14:14:36;21.80;99.90
18444;DHT22;9350;53.176;8.194;2023-05-14T14:17:03;21.70;99.90
18444;DHT22;9350;53.176;8.194;2023-05-14T14:19:29;21.70;99.90
18444;DHT22;9350;53.176;8.194;2023-05-14T14:21:56;21.60;99.90
18444;DHT22;9350;53.176;8.194;2023-05-14T14:24:23;21.50;99.90
18444;DHT22;9350;53.176;8.194;2023-05-14T14:26:51;21.50;99.90
18444;DHT22;9350;53.176;8.194;2023-05-14T14:29:18;21.50;99.90
18444;DHT22;9350;53.176;8.194;2023-05-14T14:31:46;21.40;99.90
18444;DHT22;9350;53.176;8.194;2023-05-14T14:34:13;21.30;99.90
18444;DHT22;9350;53.176;8.194;2023-05-14T14:36:39;21.20;99.90
18444;DHT22;9350;53.176;8.194;2023-05-14T14:39:06;21.10;99.90
18444;DHT22;9350;53.176;8.194;2023-05-14T14:41:33;21.10;99.90
18444;DHT22;9350;53.176;8.194;2023-05-14T14:44:01;21.00;99.90
18444;DHT22;9350;53.176;8.194;2023-05-14T14:46:28;21.00;99.90
18444;DHT22;9350;53.176;8.194;2023-05-14T14:48:54;21.00;99.90
18444;DHT22;9350;53.176;8.194;2023-05-14T14:51:21;21.00;99.90
18444;DHT22;9350;53.176;8.194;2023-05-14T14:53:48;21.00;99.90
18444;DHT22;9350;53.176;8.194;2023-05-14T14:56:15;21.00;99.90
18444;DHT22;9350;53.176;8.194;2023-05-14T14:58:41;21.00;99.90
18444;DHT22;9350;53.176;8.194;2023-05-14T15:01:11;21.00;99.90
18444;DHT22;9350;53.176;8.194;2023-05-14T15:03:37;21.10;99.90
18444;DHT22;9350;53.176;8.194;2023-05-14T15:06:05;21.10;99.90
18444;DHT22;9350;53.176;8.194;2023-05-14T15:08:32;21.10;99.90
18444;DHT22;9350;53.176;8.194;2023-05-14T15:10:59;21.10;99.90
18444;DHT22;9350;53.176;8.194;2023-05-14T15:13:26;21.00;99.90
18444;DHT22;9350;53.176;8.194;2023-05-14T15:15:53;21.00;99.90
18444;DHT22;9350;53.176;8.194;2023-05-14T15:18:21;21.00;99.90
18444;DHT22;9350;53.176;8.194;2023-05-14T15:20:48;21.10;99.90
18444;DHT22;9350;53.176;8.194;2023-05-14T15:23:15;21.10;99.90
18444;DHT22;9350;53.176;8.194;2023-05-14T15:25:42;21.00;99.90
18444;DHT22;9350;53.176;8.194;2023-05-14T15:28:08;21.00;99.90
18444;DHT22;9350;53.176;8.194;2023-05-14T15:30:35;21.00;99.90
18444;DHT22;9350;53.176;8.194;2023-05-14T15:33:02;21.00;99.90
18444;DHT22;9350;53.176;8.194;2023-05-14T15:35:30;21.10;99.90
18444;DHT22;9350;53.176;8.194;2023-05-14T15:37:57;21.20;99.90
18444;DHT22;9350;53.176;8.194;2023-05-14T15:40:25;21.20;99.90
18444;DHT22;9350;53.176;8.194;2023-05-14T15:42:52;21.20;99.90
18444;DHT22;9350;53.176;8.194;2023-05-14T15:45:19;21.20;99.90